Time;durP1;ratioP1;P1;durP2;ratioP2;P2;SDS_P1;SDS_P2;PMS_P1;PMS_P2;Temp;Humidity;BMP_temperature;BMP_pressure;BME280_temperature;BME280_humidity;BME280_pressure;Samples;Min_cycle;Max_cycle;Signal;HPM_P1;HPM_P2
2022/11/08 00:01:30;;;;;;;;;;;10.50;99.90;;;;;;5021458;28;19968;-70
2022/11/08 00:03:09;;;;;;;;;;;10.60;99.90;;;;;;5025612;28;19975;-68
2022/11/08 00:13:58;;;;;;;;;;;10.50;99.90;;;;;;5045905;28;20517;-63
2022/11/08 00:16:27;;;;;;;;;;;10.40;99.90;;;;;;5048799;28;19975;-63
2022/11/08 00:18:55;;;;;;;;;;;10.40;99.90;;;;;;5049160;28;20342;-64
2022/11/08 00:21:23;;;;;;;;;;;10.40;99.90;;;;;;5036203;28;19972;-64
2022/11/08 00:23:51;;;;;;;;;;;10.40;99.90;;;;;;5041678;28;19968;-65
2022/11/08 00:26:19;;;;;;;;;;;10.40;99.90;;;;;;5035088;28;19969;-64
2022/11/08 00:28:46;;;;;;;;;;;10.40;99.90;;;;;;5047241;28;20094;-64
2022/11/08 00:31:14;;;;;;;;;;;10.40;99.90;;;;;;5054310;28;20499;-63
2022/11/08 00:33:43;;;;;;;;;;;10.40;99.90;;;;;;5051462;28;19999;-64
2022/11/08 00:36:11;;;;;;;;;;;10.50;99.90;;;;;;5050422;28;19972;-64
2022/11/08 00:38:40;;;;;;;;;;;10.50;99.90;;;;;;5047791;28;20054;-63
2022/11/08 00:41:08;;;;;;;;;;;10.50;99.90;;;;;;5050047;28;19979;-62
2022/11/08 00:43:36;;;;;;;;;;;10.50;99.90;;;;;;5051926;28;19970;-62
2022/11/08 00:46:03;;;;;;;;;;;10.50;99.90;;;;;;5040984;28;19972;-63
2022/11/08 00:48:31;;;;;;;;;;;10.50;99.90;;;;;;5051459;28;20011;-63
2022/11/08 00:51:02;;;;;;;;;;;10.50;99.90;;;;;;5053543;28;19978;-63
2022/11/08 00:53:30;;;;;;;;;;;10.50;99.90;;;;;;5046626;28;20150;-63
2022/11/08 00:56:00;;;;;;;;;;;10.50;99.90;;;;;;5053367;28;21536;-63
2022/11/08 00:58:28;;;;;;;;;;;10.50;99.90;;;;;;5042777;28;20447;-63
2022/11/08 01:00:56;;;;;;;;;;;10.50;99.90;;;;;;5053288;28;19970;-64
2022/11/08 01:03:25;;;;;;;;;;;10.50;99.90;;;;;;5045010;28;19968;-64
2022/11/08 01:05:53;;;;;;;;;;;10.50;99.90;;;;;;5047332;28;19968;-63
2022/11/08 01:08:23;;;;;;;;;;;10.50;99.90;;;;;;5051190;28;20330;-64
2022/11/08 01:10:51;;;;;;;;;;;10.50;99.90;;;;;;5052184;28;19964;-63
2022/11/08 01:13:19;;;;;;;;;;;10.40;99.90;;;;;;5040758;28;19974;-64
2022/11/08 01:15:47;;;;;;;;;;;10.40;99.90;;;;;;5049893;28;20610;-63
2022/11/08 01:18:15;;;;;;;;;;;10.40;99.90;;;;;;5033453;28;20003;-63
2022/11/08 01:20:45;;;;;;;;;;;10.40;99.90;;;;;;5048728;28;20328;-63
2022/11/08 01:23:13;;;;;;;;;;;10.40;99.90;;;;;;5051344;28;19968;-63
2022/11/08 01:25:43;;;;;;;;;;;10.30;99.90;;;;;;5047839;28;19968;-63
2022/11/08 01:28:11;;;;;;;;;;;10.30;99.90;;;;;;5034444;28;19969;-63
2022/11/08 01:30:39;;;;;;;;;;;10.30;99.90;;;;;;5033892;28;20341;-63
2022/11/08 01:33:07;;;;;;;;;;;10.30;99.90;;;;;;5053582;28;20447;-63
2022/11/08 01:35:35;;;;;;;;;;;10.30;99.90;;;;;;5053744;28;20470;-63
2022/11/08 01:38:04;;;;;;;;;;;10.20;99.90;;;;;;5045750;28;19975;-63
2022/11/08 01:40:32;;;;;;;;;;;10.20;99.90;;;;;;5033619;28;20012;-63
2022/11/08 01:43:17;;;;;;;;;;;10.10;99.90;;;;;;5034155;28;20067;-63
2022/11/08 01:46:13;;;;;;;;;;;10.10;99.90;;;;;;5038232;28;19983;-64
2022/11/08 01:48:42;;;;;;;;;;;10.10;99.90;;;;;;5041367;28;20228;-64
2022/11/08 01:51:12;;;;;;;;;;;10.10;99.90;;;;;;5053314;28;19974;-64
2022/11/08 01:53:40;;;;;;;;;;;10.10;99.90;;;;;;5053826;28;20074;-63
2022/11/08 01:56:08;;;;;;;;;;;10.10;99.90;;;;;;5053585;28;19972;-63
2022/11/08 01:58:38;;;;;;;;;;;10.10;99.90;;;;;;5053064;28;19972;-63
2022/11/08 02:01:06;;;;;;;;;;;10.10;99.90;;;;;;5053054;28;19977;-62
2022/11/08 02:03:34;;;;;;;;;;;10.10;99.90;;;;;;5053398;28;20344;-63
2022/11/08 02:06:03;;;;;;;;;;;10.10;99.90;;;;;;5041803;28;19983;-63
2022/11/08 02:08:32;;;;;;;;;;;10.10;99.90;;;;;;5032356;28;19969;-63
2022/11/08 02:11:00;;;;;;;;;;;10.10;99.90;;;;;;5033094;28;19968;-63
2022/11/08 02:13:29;;;;;;;;;;;10.10;99.90;;;;;;5033019;28;20055;-63
2022/11/08 02:15:58;;;;;;;;;;;10.10;99.90;;;;;;5052283;28;19969;-63
2022/11/08 02:18:27;;;;;;;;;;;10.10;99.90;;;;;;5052763;28;20348;-63
2022/11/08 02:20:58;;;;;;;;;;;10.10;99.90;;;;;;5049603;28;19964;-63
2022/11/08 02:23:27;;;;;;;;;;;10.10;99.90;;;;;;5050129;28;20059;-63
2022/11/08 02:25:56;;;;;;;;;;;10.00;99.90;;;;;;5051884;28;19964;-63
2022/11/08 02:28:24;;;;;;;;;;;10.00;99.90;;;;;;5049576;28;19972;-63
2022/11/08 02:30:53;;;;;;;;;;;9.90;99.90;;;;;;5046376;28;19975;-63
2022/11/08 02:33:21;;;;;;;;;;;10.00;99.90;;;;;;5051024;28;20315;-63
2022/11/08 02:35:51;;;;;;;;;;;10.00;99.90;;;;;;5052589;28;19970;-63
2022/11/08 02:38:19;;;;;;;;;;;9.90;99.90;;;;;;5044689;28;19968;-63
2022/11/08 02:40:47;;;;;;;;;;;9.90;99.90;;;;;;5052265;28;19964;-64
2022/11/08 02:43:17;;;;;;;;;;;9.90;99.90;;;;;;5049104;28;20520;-64
2022/11/08 02:45:45;;;;;;;;;;;9.90;99.90;;;;;;5051692;28;19964;-63
2022/11/08 02:48:12;;;;;;;;;;;9.90;99.90;;;;;;5051311;28;19978;-63
2022/11/08 02:50:40;;;;;;;;;;;9.90;99.90;;;;;;5050796;28;19984;-64
2022/11/08 02:53:08;;;;;;;;;;;9.80;99.90;;;;;;5050968;28;19972;-63
2022/11/08 02:55:36;;;;;;;;;;;9.80;99.90;;;;;;5052084;28;19975;-63
2022/11/08 02:58:05;;;;;;;;;;;9.70;99.90;;;;;;5045360;28;19986;-63
2022/11/08 03:00:34;;;;;;;;;;;9.70;99.90;;;;;;5043167;28;20429;-64
2022/11/08 03:03:02;;;;;;;;;;;9.70;99.90;;;;;;5049100;28;20055;-63
2022/11/08 03:05:30;;;;;;;;;;;9.60;99.90;;;;;;5051853;28;20579;-63
2022/11/08 03:07:58;;;;;;;;;;;9.60;99.90;;;;;;5042131;28;20729;-63
2022/11/08 03:10:26;;;;;;;;;;;9.60;99.90;;;;;;5050108;28;19968;-63
2022/11/08 03:12:54;;;;;;;;;;;9.60;99.90;;;;;;5043576;28;20054;-63
2022/11/08 03:15:22;;;;;;;;;;;9.60;99.90;;;;;;5050528;28;20046;-63
2022/11/08 03:17:52;;;;;;;;;;;9.60;99.90;;;;;;5048446;28;20004;-63
2022/11/08 03:20:20;;;;;;;;;;;9.60;99.90;;;;;;5045098;28;20463;-64
2022/11/08 03:22:47;;;;;;;;;;;9.60;99.90;;;;;;5048972;28;19964;-64
2022/11/08 03:25:15;;;;;;;;;;;9.50;99.90;;;;;;5051163;28;19987;-63
2022/11/08 03:27:43;;;;;;;;;;;9.50;99.90;;;;;;5046056;28;19970;-63
2022/11/08 03:30:11;;;;;;;;;;;9.50;99.90;;;;;;5051228;28;20437;-63
2022/11/08 03:32:38;;;;;;;;;;;9.50;99.90;;;;;;5049885;28;19968;-64
2022/11/08 03:35:08;;;;;;;;;;;9.50;99.90;;;;;;5051558;28;19964;-63
2022/11/08 03:37:36;;;;;;;;;;;9.40;99.90;;;;;;5051657;28;19968;-63
2022/11/08 03:40:04;;;;;;;;;;;9.30;99.90;;;;;;5051723;28;20074;-63
2022/11/08 03:42:32;;;;;;;;;;;9.30;99.90;;;;;;5052378;28;20314;-64
2022/11/08 03:44:59;;;;;;;;;;;9.10;99.90;;;;;;5051503;28;19995;-63
2022/11/08 03:47:27;;;;;;;;;;;9.00;99.90;;;;;;5045145;28;20471;-63
2022/11/08 03:49:55;;;;;;;;;;;9.10;99.90;;;;;;5045502;28;20414;-63
2022/11/08 03:52:24;;;;;;;;;;;9.00;99.90;;;;;;5051170;28;19971;-63
2022/11/08 03:54:52;;;;;;;;;;;9.00;99.90;;;;;;5050456;28;20449;-63
2022/11/08 03:57:19;;;;;;;;;;;9.10;99.90;;;;;;5051561;28;20358;-63
2022/11/08 03:59:47;;;;;;;;;;;9.20;99.90;;;;;;5051492;28;19975;-63
2022/11/08 04:02:15;;;;;;;;;;;9.30;99.90;;;;;;5051631;28;20380;-63
2022/11/08 04:04:42;;;;;;;;;;;9.30;99.90;;;;;;5046072;28;19969;-63
2022/11/08 04:07:10;;;;;;;;;;;9.40;99.90;;;;;;5028959;28;20079;-62
2022/11/08 04:09:39;;;;;;;;;;;9.40;99.90;;;;;;5027063;28;19964;-63
2022/11/08 04:23:04;;;;;;;;;;;9.30;99.90;;;;;;5027232;28;19964;-63
2022/11/08 04:25:33;;;;;;;;;;;9.20;99.90;;;;;;5027293;28;19983;-63
2022/11/08 04:28:02;;;;;;;;;;;9.10;99.90;;;;;;5031342;28;19965;-63
2022/11/08 04:30:30;;;;;;;;;;;9.10;99.90;;;;;;5029758;28;20642;-62
2022/11/08 04:32:59;;;;;;;;;;;9.00;99.90;;;;;;5028118;28;19965;-63
2022/11/08 04:35:27;;;;;;;;;;;9.00;99.90;;;;;;5030336;28;19976;-63
2022/11/08 04:37:57;;;;;;;;;;;9.00;99.90;;;;;;5031424;28;20454;-63
2022/11/08 04:40:24;;;;;;;;;;;9.00;99.90;;;;;;5032268;28;20437;-63
2022/11/08 04:42:53;;;;;;;;;;;9.10;99.90;;;;;;5027415;28;20463;-63
2022/11/08 04:45:21;;;;;;;;;;;9.00;99.90;;;;;;5032977;28;19968;-63
2022/11/08 04:47:49;;;;;;;;;;;9.10;99.90;;;;;;5029467;28;19979;-63
2022/11/08 04:50:16;;;;;;;;;;;9.10;99.90;;;;;;5025545;28;19969;-63
2022/11/08 04:52:50;;;;;;;;;;;9.10;99.90;;;;;;5033270;28;20039;-62
2022/11/08 04:55:18;;;;;;;;;;;9.20;99.90;;;;;;5029316;28;19969;-62
2022/11/08 04:57:46;;;;;;;;;;;9.20;99.90;;;;;;5021577;28;19964;-63
2022/11/08 05:00:15;;;;;;;;;;;9.20;99.90;;;;;;5025184;28;19978;-62
2022/11/08 05:02:43;;;;;;;;;;;9.10;99.90;;;;;;5032301;28;19968;-63
2022/11/08 05:05:11;;;;;;;;;;;9.10;99.90;;;;;;5039731;28;20086;-63
2022/11/08 05:07:39;;;;;;;;;;;9.10;99.90;;;;;;5048396;28;19987;-63
2022/11/08 05:10:07;;;;;;;;;;;9.10;99.90;;;;;;5050222;28;19965;-63
2022/11/08 05:12:34;;;;;;;;;;;9.10;99.90;;;;;;5052442;28;19964;-62
2022/11/08 05:15:03;;;;;;;;;;;9.10;99.90;;;;;;5044731;28;19964;-63
2022/11/08 05:17:32;;;;;;;;;;;9.00;99.90;;;;;;5050561;28;19970;-63
2022/11/08 05:25:29;;;;;;;;;;;9.10;99.90;;;;;;5041446;28;19976;-63
2022/11/08 05:27:57;;;;;;;;;;;9.00;99.90;;;;;;5039705;28;21671;-63
2022/11/08 05:30:24;;;;;;;;;;;8.90;99.90;;;;;;5044437;28;19982;-63
2022/11/08 05:32:53;;;;;;;;;;;8.70;99.90;;;;;;5052934;28;19971;-62
2022/11/08 05:35:21;;;;;;;;;;;8.70;99.90;;;;;;5049496;28;19968;-63
2022/11/08 05:37:49;;;;;;;;;;;8.60;99.90;;;;;;5053262;28;19965;-64
2022/11/08 05:40:17;;;;;;;;;;;8.50;99.90;;;;;;5053043;28;19970;-63
2022/11/08 05:42:45;;;;;;;;;;;8.60;99.90;;;;;;5052790;28;19974;-62
2022/11/08 05:45:12;;;;;;;;;;;8.70;99.90;;;;;;5053651;28;20565;-63
2022/11/08 05:47:43;;;;;;;;;;;8.80;99.90;;;;;;5051992;28;19970;-63
2022/11/08 05:50:12;;;;;;;;;;;8.70;99.90;;;;;;5053111;28;20059;-62
2022/11/08 05:52:46;;;;;;;;;;;8.80;99.90;;;;;;5052899;28;19987;-63
2022/11/08 05:55:14;;;;;;;;;;;8.80;99.90;;;;;;5052771;28;20484;-63
2022/11/08 05:57:42;;;;;;;;;;;8.80;99.90;;;;;;5052951;28;20440;-62
2022/11/08 06:00:10;;;;;;;;;;;8.80;99.90;;;;;;5048459;28;19971;-63
2022/11/08 06:02:38;;;;;;;;;;;8.80;99.90;;;;;;5052843;28;19964;-63
2022/11/08 06:05:06;;;;;;;;;;;8.80;99.90;;;;;;5052763;28;19972;-63
2022/11/08 06:07:36;;;;;;;;;;;8.80;99.90;;;;;;5051997;28;19968;-63
2022/11/08 06:10:04;;;;;;;;;;;8.70;99.90;;;;;;5044453;28;19964;-63
2022/11/08 06:12:32;;;;;;;;;;;8.70;99.90;;;;;;5033456;28;19964;-63
2022/11/08 06:15:00;;;;;;;;;;;8.70;99.90;;;;;;5036122;28;19964;-63
2022/11/08 06:17:28;;;;;;;;;;;8.70;99.90;;;;;;5040118;28;20372;-63
2022/11/08 06:19:57;;;;;;;;;;;8.70;99.90;;;;;;5038086;28;19968;-63
2022/11/08 06:22:24;;;;;;;;;;;8.70;99.90;;;;;;5047964;28;19968;-63
2022/11/08 06:24:53;;;;;;;;;;;8.80;99.90;;;;;;5047135;28;19964;-63
2022/11/08 06:27:21;;;;;;;;;;;8.70;99.90;;;;;;5051438;28;20322;-63
2022/11/08 06:29:49;;;;;;;;;;;8.70;99.90;;;;;;5051148;28;20317;-63
2022/11/08 06:32:16;;;;;;;;;;;8.70;99.90;;;;;;5051839;28;19986;-63
2022/11/08 06:34:45;;;;;;;;;;;8.80;99.90;;;;;;5051324;28;19972;-63
2022/11/08 06:37:13;;;;;;;;;;;8.80;99.90;;;;;;5044511;28;20465;-63
2022/11/08 06:39:41;;;;;;;;;;;8.90;99.90;;;;;;5032527;28;19971;-63
2022/11/08 06:42:10;;;;;;;;;;;8.80;99.90;;;;;;5026186;28;19972;-63
2022/11/08 06:44:38;;;;;;;;;;;8.90;99.90;;;;;;5020740;28;19972;-63
2022/11/08 06:47:06;;;;;;;;;;;8.80;99.90;;;;;;5020654;28;20538;-63
2022/11/08 06:49:35;;;;;;;;;;;8.70;99.90;;;;;;5023379;28;19972;-63
2022/11/08 06:52:03;;;;;;;;;;;8.50;99.90;;;;;;5020993;28;19972;-63
2022/11/08 06:54:31;;;;;;;;;;;8.40;99.90;;;;;;5020329;28;20031;-63
2022/11/08 06:57:00;;;;;;;;;;;8.30;99.90;;;;;;5021264;28;19979;-62
2022/11/08 06:59:30;;;;;;;;;;;8.30;99.90;;;;;;5020522;28;20727;-64
2022/11/08 07:01:57;;;;;;;;;;;8.20;99.90;;;;;;5020838;28;19988;-64
2022/11/08 07:04:25;;;;;;;;;;;8.10;99.90;;;;;;5024503;28;19979;-64
2022/11/08 07:06:53;;;;;;;;;;;8.10;99.90;;;;;;5046800;28;20436;-64
2022/11/08 07:09:20;;;;;;;;;;;8.10;99.90;;;;;;5051521;28;20354;-64
2022/11/08 07:11:48;;;;;;;;;;;8.20;99.90;;;;;;5050499;28;19970;-64
2022/11/08 07:14:16;;;;;;;;;;;8.20;99.90;;;;;;5051388;28;19968;-65
2022/11/08 07:16:45;;;;;;;;;;;8.20;99.90;;;;;;5051664;28;19978;-64
2022/11/08 07:19:13;;;;;;;;;;;8.20;99.90;;;;;;5051189;28;19972;-63
2022/11/08 07:21:40;;;;;;;;;;;8.30;99.90;;;;;;5043586;28;20524;-64
2022/11/08 07:24:08;;;;;;;;;;;8.40;99.90;;;;;;5050478;28;19978;-64
2022/11/08 07:26:36;;;;;;;;;;;8.40;99.90;;;;;;5051911;28;19968;-64
2022/11/08 07:29:04;;;;;;;;;;;8.50;99.90;;;;;;5051864;28;19968;-64
2022/11/08 07:31:31;;;;;;;;;;;8.50;99.90;;;;;;5051540;28;19974;-63
2022/11/08 07:34:00;;;;;;;;;;;8.60;99.90;;;;;;5051419;28;20421;-64
2022/11/08 07:36:28;;;;;;;;;;;8.70;99.90;;;;;;5051767;28;20014;-63
2022/11/08 07:38:56;;;;;;;;;;;8.80;99.90;;;;;;5051749;28;19974;-63
2022/11/08 07:41:25;;;;;;;;;;;9.00;99.90;;;;;;5051634;28;19968;-63
2022/11/08 07:43:53;;;;;;;;;;;9.20;99.90;;;;;;5051638;28;19968;-64
2022/11/08 07:46:21;;;;;;;;;;;9.30;99.90;;;;;;5051521;28;19968;-64
2022/11/08 07:48:49;;;;;;;;;;;9.50;99.90;;;;;;5051269;28;20428;-64
2022/11/08 07:51:18;;;;;;;;;;;9.50;99.90;;;;;;5051273;28;20460;-64
2022/11/08 07:53:45;;;;;;;;;;;9.60;99.90;;;;;;5051768;28;19979;-63
2022/11/08 07:56:14;;;;;;;;;;;9.60;99.90;;;;;;5051612;28;19968;-63
2022/11/08 07:58:42;;;;;;;;;;;9.60;99.90;;;;;;5051344;28;19975;-64
2022/11/08 08:01:09;;;;;;;;;;;9.70;99.90;;;;;;5051616;28;20075;-63
2022/11/08 08:03:37;;;;;;;;;;;9.70;99.90;;;;;;5051370;28;19968;-64
2022/11/08 08:06:05;;;;;;;;;;;9.70;99.90;;;;;;5053181;28;19982;-64
2022/11/08 08:08:34;;;;;;;;;;;9.70;99.90;;;;;;5055443;28;19974;-63
2022/11/08 08:11:02;;;;;;;;;;;9.60;99.90;;;;;;5055061;28;19968;-64
2022/11/08 08:13:29;;;;;;;;;;;9.60;99.90;;;;;;5055233;28;20360;-64
2022/11/08 08:15:59;;;;;;;;;;;9.60;99.90;;;;;;5055408;28;20349;-63
2022/11/08 08:18:27;;;;;;;;;;;9.60;99.90;;;;;;5055025;28;20022;-63
2022/11/08 08:20:54;;;;;;;;;;;9.60;99.90;;;;;;5054868;28;20469;-63
2022/11/08 08:23:22;;;;;;;;;;;9.60;99.90;;;;;;5055324;28;19972;-64
2022/11/08 08:25:51;;;;;;;;;;;9.80;99.90;;;;;;5054905;28;19975;-64
2022/11/08 08:28:19;;;;;;;;;;;10.00;99.90;;;;;;5054913;28;19972;-64
2022/11/08 08:30:47;;;;;;;;;;;10.10;99.90;;;;;;5054883;28;20406;-64
2022/11/08 08:33:16;;;;;;;;;;;10.30;99.90;;;;;;5054990;28;19994;-64
2022/11/08 08:35:59;;;;;;;;;;;10.40;99.90;;;;;;5054786;28;19972;-64
2022/11/08 08:38:28;;;;;;;;;;;10.40;99.90;;;;;;5054793;28;20011;-63
2022/11/08 08:40:57;;;;;;;;;;;10.30;99.90;;;;;;5054812;28;19972;-63
2022/11/08 08:43:26;;;;;;;;;;;10.30;99.90;;;;;;5055092;28;20070;-64
2022/11/08 08:45:54;;;;;;;;;;;10.20;99.90;;;;;;5054361;28;20007;-64
2022/11/08 08:48:21;;;;;;;;;;;10.30;99.90;;;;;;5054567;28;20376;-64
2022/11/08 08:50:49;;;;;;;;;;;10.30;99.90;;;;;;5054207;28;20329;-64
2022/11/08 08:53:17;;;;;;;;;;;10.30;99.90;;;;;;5054781;28;20011;-64
2022/11/08 08:55:46;;;;;;;;;;;10.30;99.90;;;;;;5054314;28;20066;-63
2022/11/08 08:58:15;;;;;;;;;;;10.50;99.90;;;;;;5054440;28;20055;-64
2022/11/08 09:00:43;;;;;;;;;;;10.50;99.90;;;;;;5054143;28;19975;-63
2022/11/08 09:03:31;;;;;;;;;;;10.50;99.90;;;;;;5054317;28;19972;-64
2022/11/08 09:05:59;;;;;;;;;;;10.50;99.90;;;;;;5054180;28;19968;-64
2022/11/08 09:08:27;;;;;;;;;;;10.50;99.90;;;;;;5054071;28;19972;-64
2022/11/08 09:10:55;;;;;;;;;;;10.50;99.90;;;;;;5054043;28;19976;-64
2022/11/08 09:13:25;;;;;;;;;;;10.50;99.90;;;;;;5054370;28;19979;-64
2022/11/08 09:15:53;;;;;;;;;;;10.50;99.90;;;;;;5053652;28;20445;-64
2022/11/08 09:18:21;;;;;;;;;;;10.80;99.90;;;;;;5052739;28;19991;-64
2022/11/08 09:20:49;;;;;;;;;;;11.30;99.90;;;;;;5053791;28;20448;-64
2022/11/08 09:23:17;;;;;;;;;;;11.80;99.90;;;;;;5054111;28;19979;-64
2022/11/08 09:25:45;;;;;;;;;;;12.50;99.90;;;;;;5053776;28;20365;-64
2022/11/08 09:28:13;;;;;;;;;;;13.10;99.90;;;;;;5053987;28;19972;-64
2022/11/08 09:30:42;;;;;;;;;;;13.60;99.90;;;;;;5053660;28;19974;-64
2022/11/08 09:33:10;;;;;;;;;;;14.10;99.90;;;;;;5053904;28;19979;-64
2022/11/08 09:35:38;;;;;;;;;;;14.50;99.90;;;;;;5053626;28;19968;-64
2022/11/08 09:38:06;;;;;;;;;;;14.80;99.90;;;;;;5053675;28;19972;-64
2022/11/08 09:40:38;;;;;;;;;;;15.00;99.90;;;;;;5053584;28;19968;-64
2022/11/08 09:43:12;;;;;;;;;;;15.40;99.90;;;;;;5054119;28;20272;-64
2022/11/08 09:45:43;;;;;;;;;;;15.60;99.90;;;;;;5053145;28;19967;-64
2022/11/08 09:48:16;;;;;;;;;;;15.90;99.90;;;;;;5053554;28;19991;-64
2022/11/08 09:50:45;;;;;;;;;;;16.00;99.90;;;;;;5046128;28;20619;-64
2022/11/08 09:53:17;;;;;;;;;;;15.70;99.90;;;;;;5053295;28;19972;-64
2022/11/08 09:55:47;;;;;;;;;;;15.30;99.90;;;;;;5053228;28;20018;-64
2022/11/08 09:58:20;;;;;;;;;;;15.30;99.90;;;;;;5053460;28;19968;-64
2022/11/08 10:00:52;;;;;;;;;;;15.40;99.90;;;;;;5053097;28;19975;-64
2022/11/08 10:03:22;;;;;;;;;;;15.10;99.90;;;;;;5053343;28;19975;-64
2022/11/08 10:05:54;;;;;;;;;;;14.90;99.90;;;;;;5052792;28;20468;-64
2022/11/08 10:08:26;;;;;;;;;;;14.50;99.90;;;;;;5053495;28;19968;-64
2022/11/08 10:11:12;;;;;;;;;;;14.60;99.90;;;;;;5052960;28;19974;-64
2022/11/08 10:13:46;;;;;;;;;;;14.90;99.90;;;;;;5053247;28;19972;-64
2022/11/08 10:16:20;;;;;;;;;;;15.10;99.90;;;;;;5052697;28;20452;-64
2022/11/08 10:19:14;;;;;;;;;;;15.30;99.90;;;;;;5053257;28;19990;-64
2022/11/08 10:21:50;;;;;;;;;;;15.50;99.90;;;;;;5033098;28;20058;-64
2022/11/08 10:24:22;;;;;;;;;;;15.50;99.90;;;;;;5032800;28;19975;-64
2022/11/08 10:26:52;;;;;;;;;;;15.70;99.90;;;;;;5032878;28;19969;-64
2022/11/08 10:29:21;;;;;;;;;;;15.40;99.90;;;;;;5032301;28;19969;-64
2022/11/08 10:31:52;;;;;;;;;;;15.60;99.90;;;;;;5032407;28;19968;-64
2022/11/08 10:34:22;;;;;;;;;;;15.50;99.90;;;;;;5032937;28;19988;-64
2022/11/08 10:36:52;;;;;;;;;;;15.60;99.90;;;;;;5032864;28;19979;-64
2022/11/08 10:39:21;;;;;;;;;;;15.70;99.90;;;;;;5032426;28;19979;-64
2022/11/08 10:41:53;;;;;;;;;;;15.90;99.90;;;;;;5032369;28;20449;-64
2022/11/08 10:44:22;;;;;;;;;;;16.00;99.90;;;;;;5032649;28;20018;-64
2022/11/08 10:46:57;;;;;;;;;;;16.10;99.90;;;;;;5037949;28;19971;-64
2022/11/08 10:49:26;;;;;;;;;;;16.30;99.90;;;;;;5052194;28;20437;-66
2022/11/08 10:51:55;;;;;;;;;;;16.40;99.90;;;;;;5050264;28;19973;-64
2022/11/08 10:54:42;;;;;;;;;;;16.40;99.90;;;;;;5052369;28;19976;-64
2022/11/08 10:57:10;;;;;;;;;;;16.40;99.90;;;;;;5052489;28;19990;-64
2022/11/08 10:59:38;;;;;;;;;;;17.00;99.90;;;;;;5051968;28;19979;-64
2022/11/08 11:02:28;;;;;;;;;;;17.20;99.90;;;;;;5052094;28;19978;-64
2022/11/08 11:05:10;;;;;;;;;;;17.60;99.90;;;;;;5052031;28;20393;-64
2022/11/08 11:07:38;;;;;;;;;;;17.60;99.90;;;;;;5052258;28;19966;-64
2022/11/08 11:10:22;;;;;;;;;;;17.20;99.90;;;;;;5051680;28;20062;-63
2022/11/08 11:12:51;;;;;;;;;;;16.50;99.90;;;;;;5052007;28;20253;-64
2022/11/08 11:15:19;;;;;;;;;;;15.80;99.90;;;;;;5052284;28;20061;-64
2022/11/08 11:17:48;;;;;;;;;;;15.70;99.90;;;;;;5052210;28;19972;-64
2022/11/08 11:20:21;;;;;;;;;;;15.50;99.90;;;;;;5051503;28;20001;-63
2022/11/08 11:22:49;;;;;;;;;;;15.50;99.90;;;;;;5051984;28;20003;-64
2022/11/08 11:25:18;;;;;;;;;;;15.50;99.90;;;;;;5051668;28;19978;-63
2022/11/08 11:27:49;;;;;;;;;;;15.70;99.90;;;;;;5051978;28;20313;-64
2022/11/08 11:30:21;;;;;;;;;;;15.80;99.90;;;;;;5051628;28;19968;-64
2022/11/08 11:32:57;;;;;;;;;;;15.80;99.90;;;;;;5051907;28;20462;-63
2022/11/08 11:35:27;;;;;;;;;;;15.70;99.90;;;;;;5051980;28;19974;-64
2022/11/08 11:37:56;;;;;;;;;;;15.80;99.90;;;;;;5051734;28;20024;-64
2022/11/08 11:40:26;;;;;;;;;;;15.90;99.90;;;;;;5034695;28;19979;-64
2022/11/08 11:42:59;;;;;;;;;;;15.90;99.90;;;;;;5056113;28;19971;-64
2022/11/08 11:45:28;;;;;;;;;;;15.80;99.90;;;;;;5055892;28;19974;-64
2022/11/08 11:48:00;;;;;;;;;;;15.70;99.90;;;;;;5055870;28;19977;-64
2022/11/08 11:50:30;;;;;;;;;;;15.50;99.90;;;;;;5055346;28;19982;-64
2022/11/08 11:52:59;;;;;;;;;;;15.40;99.90;;;;;;5055788;28;20071;-64
2022/11/08 11:55:29;;;;;;;;;;;15.50;99.90;;;;;;5055664;28;20546;-64
2022/11/08 11:58:05;;;;;;;;;;;15.40;99.90;;;;;;5055737;28;19972;-63
2022/11/08 12:00:34;;;;;;;;;;;15.40;99.90;;;;;;5055695;28;19968;-64
2022/11/08 12:03:21;;;;;;;;;;;15.40;99.90;;;;;;5055514;28;20364;-64
2022/11/08 12:05:59;;;;;;;;;;;15.50;99.90;;;;;;5082556;22;20012;-62
2022/11/08 12:08:34;;;;;;;;;;;15.60;99.90;;;;;;5066869;28;19966;-63
2022/11/08 12:11:09;;;;;;;;;;;15.60;99.90;;;;;;5075015;28;19974;-63
2022/11/08 12:13:42;;;;;;;;;;;15.50;99.90;;;;;;5075251;28;19982;-62
2022/11/08 12:16:12;;;;;;;;;;;15.60;99.90;;;;;;5062060;28;20447;-63
2022/11/08 12:18:51;;;;;;;;;;;15.50;99.90;;;;;;5055452;28;19978;-63
2022/11/08 12:21:23;;;;;;;;;;;15.70;99.90;;;;;;5050273;28;20011;-63
2022/11/08 12:24:05;;;;;;;;;;;15.60;99.90;;;;;;5048837;28;19968;-63
2022/11/08 12:26:37;;;;;;;;;;;15.50;99.90;;;;;;5055185;28;20458;-63
2022/11/08 12:29:17;;;;;;;;;;;15.60;99.90;;;;;;5055368;28;19975;-62
2022/11/08 12:31:47;;;;;;;;;;;15.50;99.90;;;;;;5054758;28;19978;-63
2022/11/08 12:34:21;;;;;;;;;;;15.40;99.90;;;;;;5054950;28;19974;-63
2022/11/08 12:36:53;;;;;;;;;;;15.50;99.90;;;;;;5055042;28;19975;-63
2022/11/08 12:39:26;;;;;;;;;;;15.60;99.90;;;;;;5054972;28;20062;-62
2022/11/08 12:42:01;;;;;;;;;;;15.60;99.90;;;;;;5054806;28;19968;-63
2022/11/08 12:44:41;;;;;;;;;;;15.70;99.90;;;;;;5054806;28;19998;-63
2022/11/08 12:47:17;;;;;;;;;;;15.70;99.90;;;;;;5054874;28;19978;-63
2022/11/08 12:49:51;;;;;;;;;;;15.80;99.90;;;;;;5054663;28;19968;-63
2022/11/08 12:52:24;;;;;;;;;;;15.80;99.90;;;;;;5041021;28;19968;-63
2022/11/08 12:54:53;;;;;;;;;;;15.70;99.90;;;;;;5054409;28;20453;-63
2022/11/08 12:57:26;;;;;;;;;;;15.70;99.90;;;;;;5054552;28;19991;-62
2022/11/08 12:59:58;;;;;;;;;;;15.80;99.90;;;;;;5054487;28;20065;-63
2022/11/08 13:02:30;;;;;;;;;;;15.90;99.90;;;;;;5053740;28;20223;-62
2022/11/08 13:05:01;;;;;;;;;;;15.90;99.90;;;;;;5054215;28;19974;-63
2022/11/08 13:07:37;;;;;;;;;;;16.00;99.90;;;;;;5054310;28;19982;-63
2022/11/08 13:10:07;;;;;;;;;;;15.90;99.90;;;;;;5054199;28;19974;-62
2022/11/08 13:12:43;;;;;;;;;;;15.80;99.90;;;;;;5054323;28;20386;-63
2022/11/08 13:15:14;;;;;;;;;;;15.80;99.90;;;;;;5054186;28;20452;-63
2022/11/08 13:18:02;;;;;;;;;;;15.70;99.90;;;;;;5054083;28;19974;-63
2022/11/08 13:20:38;;;;;;;;;;;15.90;99.90;;;;;;5050274;28;19972;-63
2022/11/08 13:23:08;;;;;;;;;;;16.00;99.90;;;;;;5045787;28;19964;-63
2022/11/08 13:25:37;;;;;;;;;;;16.00;99.90;;;;;;5053732;28;19968;-62
2022/11/08 13:28:24;;;;;;;;;;;16.00;99.90;;;;;;5053813;28;19968;-62
2022/11/08 13:30:58;;;;;;;;;;;16.00;99.90;;;;;;5053827;28;19968;-63
2022/11/08 13:33:28;;;;;;;;;;;15.90;99.90;;;;;;5053931;28;19980;-63
2022/11/08 13:36:04;;;;;;;;;;;15.90;99.90;;;;;;5053767;28;19966;-63
2022/11/08 13:38:38;;;;;;;;;;;15.90;99.90;;;;;;5053779;28;20051;-63
2022/11/08 13:41:15;;;;;;;;;;;15.90;99.90;;;;;;5053627;28;20067;-62
2022/11/08 13:43:42;;;;;;;;;;;15.80;99.90;;;;;;5053714;28;19990;-62
2022/11/08 13:46:29;;;;;;;;;;;15.70;99.90;;;;;;5053456;28;19975;-63
2022/11/08 13:49:04;;;;;;;;;;;15.70;99.90;;;;;;5053545;28;20405;-63
2022/11/08 13:51:34;;;;;;;;;;;15.60;99.90;;;;;;5047075;28;20381;-62
2022/11/08 13:54:03;;;;;;;;;;;15.70;99.90;;;;;;5048549;28;20383;-62
2022/11/08 13:56:42;;;;;;;;;;;15.70;99.90;;;;;;5053045;28;20339;-62
2022/11/08 13:59:28;;;;;;;;;;;15.60;99.90;;;;;;5053382;28;19972;-62
2022/11/08 14:01:57;;;;;;;;;;;15.60;99.90;;;;;;5053618;28;19974;-63
2022/11/08 14:04:26;;;;;;;;;;;15.50;99.90;;;;;;5052871;28;19972;-62
2022/11/08 14:07:01;;;;;;;;;;;15.40;99.90;;;;;;5052816;28;20389;-63
2022/11/08 14:09:35;;;;;;;;;;;15.40;99.90;;;;;;5053141;28;19972;-63
2022/11/08 14:12:05;;;;;;;;;;;15.40;99.90;;;;;;5053206;28;19972;-63
2022/11/08 14:14:42;;;;;;;;;;;15.30;99.90;;;;;;5053227;28;20463;-63
2022/11/08 14:17:13;;;;;;;;;;;15.20;99.90;;;;;;5052941;28;20348;-62
2022/11/08 14:19:41;;;;;;;;;;;15.20;99.90;;;;;;5052918;28;19979;-62
2022/11/08 14:22:15;;;;;;;;;;;15.20;99.90;;;;;;5040998;28;19968;-63
2022/11/08 14:24:43;;;;;;;;;;;15.10;99.90;;;;;;5013160;28;19976;-64
2022/11/08 14:27:12;;;;;;;;;;;15.10;99.90;;;;;;5013091;28;19969;-64
2022/11/08 14:29:40;;;;;;;;;;;15.00;99.90;;;;;;5013075;28;19980;-62
2022/11/08 14:32:15;;;;;;;;;;;15.00;99.90;;;;;;5013286;28;20066;-62
2022/11/08 14:34:43;;;;;;;;;;;15.00;99.90;;;;;;5013017;28;19968;-63
2022/11/08 14:37:19;;;;;;;;;;;14.90;99.90;;;;;;5012915;28;19969;-62
2022/11/08 14:39:47;;;;;;;;;;;14.80;99.90;;;;;;5012896;28;20441;-62
2022/11/08 14:42:18;;;;;;;;;;;14.80;99.90;;;;;;5013056;28;20050;-62
2022/11/08 14:44:46;;;;;;;;;;;14.80;99.90;;;;;;5013001;28;19975;-62
2022/11/08 14:47:24;;;;;;;;;;;14.70;99.90;;;;;;5012776;28;20361;-63
2022/11/08 14:49:52;;;;;;;;;;;14.70;99.90;;;;;;5013335;28;19977;-62
2022/11/08 14:52:26;;;;;;;;;;;14.70;99.90;;;;;;5040716;28;20063;-62
2022/11/08 14:55:02;;;;;;;;;;;14.60;99.90;;;;;;5032498;28;20477;-62
2022/11/08 14:57:31;;;;;;;;;;;14.60;99.90;;;;;;5032351;28;19991;-62
2022/11/08 15:00:01;;;;;;;;;;;14.60;99.90;;;;;;5032057;28;20501;-62
2022/11/08 15:02:29;;;;;;;;;;;14.50;99.90;;;;;;5032455;28;20433;-62